sensor_id;sensor_type;location;lat;lon;timestamp;pressure;altitude;pressure_sealevel;temperature;humidity
6506;BME280;3286;49.858;8.768;2023-07-13T00:00:30;99104.34;;;21.77;35.60
6506;BME280;3286;49.858;8.768;2023-07-13T00:02:57;99108.13;;;22.18;35.11
6506;BME280;3286;49.858;8.768;2023-07-13T00:05:24;99115.75;;;21.53;36.29
6506;BME280;3286;49.858;8.768;2023-07-13T00:07:53;99117.66;;;21.71;35.89
6506;BME280;3286;49.858;8.768;2023-07-13T00:10:20;99108.78;;;22.32;34.62
6506;BME280;3286;49.858;8.768;2023-07-13T00:12:47;99103.94;;;22.22;34.87
6506;BME280;3286;49.858;8.768;2023-07-13T00:15:16;99111.75;;;21.63;35.82
6506;BME280;3286;49.858;8.768;2023-07-13T00:17:48;99114.13;;;21.34;36.40
6506;BME280;3286;49.858;8.768;2023-07-13T00:20:15;99110.75;;;22.25;35.00
6506;BME280;3286;49.858;8.768;2023-07-13T00:22:41;99117.78;;;21.58;36.18
6506;BME280;3286;49.858;8.768;2023-07-13T00:25:10;99116.13;;;22.25;35.37
6506;BME280;3286;49.858;8.768;2023-07-13T00:27:37;99113.06;;;22.52;34.89
6506;BME280;3286;49.858;8.768;2023-07-13T00:30:05;99104.56;;;22.36;35.13
6506;BME280;3286;49.858;8.768;2023-07-13T00:32:32;99105.38;;;21.20;36.90
6506;BME280;3286;49.858;8.768;2023-07-13T00:34:58;99118.13;;;21.99;35.96
6506;BME280;3286;49.858;8.768;2023-07-13T00:37:25;99113.13;;;22.45;34.46
6506;BME280;3286;49.858;8.768;2023-07-13T00:39:52;99122.06;;;22.15;35.16
6506;BME280;3286;49.858;8.768;2023-07-13T00:42:21;99108.00;;;22.13;35.14
6506;BME280;3286;49.858;8.768;2023-07-13T00:47:59;99111.13;;;22.71;34.47
6506;BME280;3286;49.858;8.768;2023-07-13T00:50:26;99113.22;;;22.38;34.89
6506;BME280;3286;49.858;8.768;2023-07-13T00:52:55;99113.44;;;21.64;36.21
6506;BME280;3286;49.858;8.768;2023-07-13T00:55:23;99123.47;;;21.50;36.50
6506;BME280;3286;49.858;8.768;2023-07-13T00:57:51;99123.13;;;21.65;36.40
6506;BME280;3286;49.858;8.768;2023-07-13T01:00:20;99124.41;;;21.93;35.63
6506;BME280;3286;49.858;8.768;2023-07-13T01:02:48;99128.34;;;22.09;35.29
6506;BME280;3286;49.858;8.768;2023-07-13T01:05:17;99123.28;;;22.31;35.23
6506;BME280;3286;49.858;8.768;2023-07-13T01:07:45;99109.19;;;21.87;36.01
6506;BME280;3286;49.858;8.768;2023-07-13T01:10:13;99125.34;;;21.87;35.74
6506;BME280;3286;49.858;8.768;2023-07-13T01:12:40;99125.50;;;21.73;36.69
6506;BME280;3286;49.858;8.768;2023-07-13T01:15:37;99127.09;;;22.11;35.93
6506;BME280;3286;49.858;8.768;2023-07-13T01:18:04;99125.13;;;21.69;36.23
6506;BME280;3286;49.858;8.768;2023-07-13T01:20:31;99129.00;;;21.92;36.15
6506;BME280;3286;49.858;8.768;2023-07-13T01:23:04;99124.50;;;20.86;38.56
6506;BME280;3286;49.858;8.768;2023-07-13T01:25:31;99117.78;;;21.39;37.34
6506;BME280;3286;49.858;8.768;2023-07-13T01:27:58;99126.56;;;21.09;37.43
6506;BME280;3286;49.858;8.768;2023-07-13T01:30:25;99129.16;;;20.97;37.97
6506;BME280;3286;49.858;8.768;2023-07-13T01:32:51;99131.50;;;21.12;37.97
6506;BME280;3286;49.858;8.768;2023-07-13T01:35:18;99135.06;;;21.06;37.80
6506;BME280;3286;49.858;8.768;2023-07-13T01:37:45;99120.16;;;21.10;37.93
6506;BME280;3286;49.858;8.768;2023-07-13T01:40:14;99125.47;;;20.34;39.45
6506;BME280;3286;49.858;8.768;2023-07-13T01:42:41;99121.72;;;21.18;37.81
6506;BME280;3286;49.858;8.768;2023-07-13T01:45:08;99133.53;;;20.92;38.51
6506;BME280;3286;49.858;8.768;2023-07-13T01:47:35;99118.91;;;21.32;37.59
6506;BME280;3286;49.858;8.768;2023-07-13T01:50:01;99129.72;;;21.62;36.93
6506;BME280;3286;49.858;8.768;2023-07-13T01:52:28;99128.00;;;21.49;37.19
6506;BME280;3286;49.858;8.768;2023-07-13T01:54:54;99129.72;;;21.81;36.65
6506;BME280;3286;49.858;8.768;2023-07-13T01:57:22;99127.28;;;21.42;37.33
6506;BME280;3286;49.858;8.768;2023-07-13T01:59:49;99142.03;;;20.89;38.30
6506;BME280;3286;49.858;8.768;2023-07-13T02:02:16;99133.44;;;21.24;37.75
6506;BME280;3286;49.858;8.768;2023-07-13T02:04:42;99127.47;;;21.22;37.75
6506;BME280;3286;49.858;8.768;2023-07-13T02:07:09;99142.44;;;21.11;38.48
6506;BME280;3286;49.858;8.768;2023-07-13T02:09:36;99145.41;;;20.77;38.54
6506;BME280;3286;49.858;8.768;2023-07-13T02:12:03;99152.84;;;20.50;39.36
6506;BME280;3286;49.858;8.768;2023-07-13T02:14:31;99154.13;;;20.02;40.19
6506;BME280;3286;49.858;8.768;2023-07-13T02:16:58;99150.59;;;20.72;39.11
6506;BME280;3286;49.858;8.768;2023-07-13T02:19:24;99148.66;;;20.86;38.55
6506;BME280;3286;49.858;8.768;2023-07-13T02:21:51;99154.94;;;20.41;39.43
6506;BME280;3286;49.858;8.768;2023-07-13T02:24:17;99151.19;;;21.06;38.22
6506;BME280;3286;49.858;8.768;2023-07-13T02:26:46;99165.72;;;20.98;38.37
6506;BME280;3286;49.858;8.768;2023-07-13T02:29:13;99169.56;;;20.45;39.53
6506;BME280;3286;49.858;8.768;2023-07-13T02:31:41;99162.69;;;21.32;37.98
6506;BME280;3286;49.858;8.768;2023-07-13T02:34:08;99170.69;;;20.95;38.58
6506;BME280;3286;49.858;8.768;2023-07-13T02:36:35;99172.31;;;20.96;38.56
6506;BME280;3286;49.858;8.768;2023-07-13T02:39:04;99167.91;;;21.08;38.44
6506;BME280;3286;49.858;8.768;2023-07-13T02:41:31;99173.53;;;21.00;38.29
6506;BME280;3286;49.858;8.768;2023-07-13T02:43:58;99173.53;;;21.00;38.51
6506;BME280;3286;49.858;8.768;2023-07-13T02:46:29;99170.50;;;20.58;39.37
6506;BME280;3286;49.858;8.768;2023-07-13T02:48:57;99175.34;;;20.81;38.95
6506;BME280;3286;49.858;8.768;2023-07-13T02:51:23;99173.59;;;20.93;39.03
6506;BME280;3286;49.858;8.768;2023-07-13T02:53:50;99178.97;;;20.61;39.34
6506;BME280;3286;49.858;8.768;2023-07-13T02:56:19;99183.16;;;20.50;39.67
6506;BME280;3286;49.858;8.768;2023-07-13T02:58:46;99177.72;;;20.64;39.44
6506;BME280;3286;49.858;8.768;2023-07-13T03:01:12;99171.38;;;20.51;39.57
6506;BME280;3286;49.858;8.768;2023-07-13T03:03:44;99179.16;;;20.60;39.29
6506;BME280;3286;49.858;8.768;2023-07-13T03:06:14;99174.84;;;20.59;39.47
6506;BME280;3286;49.858;8.768;2023-07-13T03:08:40;99178.09;;;20.67;39.27
6506;BME280;3286;49.858;8.768;2023-07-13T03:11:09;99174.13;;;20.45;40.25
6506;BME280;3286;49.858;8.768;2023-07-13T03:13:37;99177.91;;;20.30;40.36
6506;BME280;3286;49.858;8.768;2023-07-13T03:16:04;99179.81;;;20.16;40.57
6506;BME280;3286;49.858;8.768;2023-07-13T03:18:32;99181.94;;;20.46;40.16
6506;BME280;3286;49.858;8.768;2023-07-13T03:20:58;99173.47;;;20.49;39.88
6506;BME280;3286;49.858;8.768;2023-07-13T03:23:26;99172.88;;;20.73;39.54
6506;BME280;3286;49.858;8.768;2023-07-13T03:26:01;99180.72;;;20.42;40.44
6506;BME280;3286;49.858;8.768;2023-07-13T03:28:28;99181.63;;;20.29;40.20
6506;BME280;3286;49.858;8.768;2023-07-13T03:30:59;99174.47;;;20.16;40.70
6506;BME280;3286;49.858;8.768;2023-07-13T03:33:26;99183.78;;;20.14;40.88
6506;BME280;3286;49.858;8.768;2023-07-13T03:35:53;99191.28;;;19.78;41.52
6506;BME280;3286;49.858;8.768;2023-07-13T03:38:19;99189.66;;;19.90;41.07
6506;BME280;3286;49.858;8.768;2023-07-13T03:40:47;99195.09;;;20.16;40.45
6506;BME280;3286;49.858;8.768;2023-07-13T03:43:14;99196.94;;;20.22;40.46
6506;BME280;3286;49.858;8.768;2023-07-13T03:45:41;99201.88;;;20.18;40.65
6506;BME280;3286;49.858;8.768;2023-07-13T03:48:07;99201.78;;;20.00;41.18
6506;BME280;3286;49.858;8.768;2023-07-13T03:50:34;99206.63;;;20.23;40.52
6506;BME280;3286;49.858;8.768;2023-07-13T03:53:01;99206.94;;;20.01;41.15
6506;BME280;3286;49.858;8.768;2023-07-13T03:55:27;99209.97;;;20.11;41.12
6506;BME280;3286;49.858;8.768;2023-07-13T03:57:59;99201.50;;;20.15;40.99
6506;BME280;3286;49.858;8.768;2023-07-13T04:00:26;99207.75;;;20.02;41.17
6506;BME280;3286;49.858;8.768;2023-07-13T04:02:52;99210.44;;;19.95;41.14
6506;BME280;3286;49.858;8.768;2023-07-13T04:05:19;99214.16;;;19.87;41.28
6506;BME280;3286;49.858;8.768;2023-07-13T04:07:46;99213.03;;;20.22;40.53
6506;BME280;3286;49.858;8.768;2023-07-13T04:10:12;99214.13;;;20.07;40.79
6506;BME280;3286;49.858;8.768;2023-07-13T04:12:39;99216.22;;;19.92;41.53
6506;BME280;3286;49.858;8.768;2023-07-13T04:15:08;99213.97;;;19.95;41.28
6506;BME280;3286;49.858;8.768;2023-07-13T04:17:35;99215.00;;;19.94;41.34
6506;BME280;3286;49.858;8.768;2023-07-13T04:20:02;99222.50;;;20.24;40.77
6506;BME280;3286;49.858;8.768;2023-07-13T04:22:30;99227.56;;;19.94;41.42
6506;BME280;3286;49.858;8.768;2023-07-13T04:24:56;99224.78;;;20.27;40.71
6506;BME280;3286;49.858;8.768;2023-07-13T04:27:23;99224.19;;;20.19;40.77
6506;BME280;3286;49.858;8.768;2023-07-13T04:29:49;99222.56;;;20.11;41.17
6506;BME280;3286;49.858;8.768;2023-07-13T04:32:18;99226.06;;;20.11;41.24
6506;BME280;3286;49.858;8.768;2023-07-13T04:34:44;99227.41;;;20.34;40.96
6506;BME280;3286;49.858;8.768;2023-07-13T04:37:11;99230.41;;;20.06;41.61
6506;BME280;3286;49.858;8.768;2023-07-13T04:39:38;99235.81;;;19.99;41.83
6506;BME280;3286;49.858;8.768;2023-07-13T04:42:05;99231.50;;;19.91;42.09
6506;BME280;3286;49.858;8.768;2023-07-13T04:44:32;99228.06;;;20.30;41.69
6506;BME280;3286;49.858;8.768;2023-07-13T04:46:58;99232.22;;;20.25;41.48
6506;BME280;3286;49.858;8.768;2023-07-13T04:49:26;99243.75;;;20.26;41.66
6506;BME280;3286;49.858;8.768;2023-07-13T04:51:53;99255.56;;;20.57;40.60
6506;BME280;3286;49.858;8.768;2023-07-13T04:54:20;99251.59;;;20.27;41.23
6506;BME280;3286;49.858;8.768;2023-07-13T04:56:47;99250.56;;;20.22;40.72
6506;BME280;3286;49.858;8.768;2023-07-13T04:59:13;99253.09;;;20.55;39.90
6506;BME280;3286;49.858;8.768;2023-07-13T05:01:40;99259.63;;;20.27;40.34
6506;BME280;3286;49.858;8.768;2023-07-13T05:04:07;99258.69;;;20.54;39.81
6506;BME280;3286;49.858;8.768;2023-07-13T05:06:35;99254.97;;;20.55;40.00
6506;BME280;3286;49.858;8.768;2023-07-13T05:09:01;99253.91;;;20.95;39.07
6506;BME280;3286;49.858;8.768;2023-07-13T05:11:28;99259.59;;;20.80;39.16
6506;BME280;3286;49.858;8.768;2023-07-13T05:13:55;99261.28;;;20.67;39.11
6506;BME280;3286;49.858;8.768;2023-07-13T05:16:21;99259.38;;;20.75;39.22
6506;BME280;3286;49.858;8.768;2023-07-13T05:18:48;99258.19;;;20.70;39.22
6506;BME280;3286;49.858;8.768;2023-07-13T05:21:14;99265.91;;;18.80;42.77
6506;BME280;3286;49.858;8.768;2023-07-13T05:23:43;99277.06;;;19.64;41.17
6506;BME280;3286;49.858;8.768;2023-07-13T05:26:10;99265.06;;;20.07;39.69
6506;BME280;3286;49.858;8.768;2023-07-13T05:28:37;99265.34;;;20.45;39.68
6506;BME280;3286;49.858;8.768;2023-07-13T05:31:04;99265.25;;;20.65;38.96
6506;BME280;3286;49.858;8.768;2023-07-13T05:33:31;99260.16;;;21.21;37.60
6506;BME280;3286;49.858;8.768;2023-07-13T05:35:57;99268.16;;;20.56;38.71
6506;BME280;3286;49.858;8.768;2023-07-13T05:38:25;99266.03;;;20.26;38.73
6506;BME280;3286;49.858;8.768;2023-07-13T05:40:55;99266.41;;;20.82;38.34
6506;BME280;3286;49.858;8.768;2023-07-13T05:43:22;99259.72;;;21.24;37.82
6506;BME280;3286;49.858;8.768;2023-07-13T05:45:52;99256.47;;;21.40;36.83
6506;BME280;3286;49.858;8.768;2023-07-13T05:48:19;99262.66;;;21.66;36.57
6506;BME280;3286;49.858;8.768;2023-07-13T05:50:45;99258.09;;;21.41;36.31
6506;BME280;3286;49.858;8.768;2023-07-13T05:53:12;99261.34;;;21.76;35.35
6506;BME280;3286;49.858;8.768;2023-07-13T05:55:41;99264.47;;;20.96;36.82
6506;BME280;3286;49.858;8.768;2023-07-13T05:58:10;99259.66;;;21.31;35.75
6506;BME280;3286;49.858;8.768;2023-07-13T06:00:37;99262.97;;;20.16;38.02
6506;BME280;3286;49.858;8.768;2023-07-13T06:03:04;99261.34;;;21.25;36.88
6506;BME280;3286;49.858;8.768;2023-07-13T06:05:32;99265.34;;;21.66;36.40
6506;BME280;3286;49.858;8.768;2023-07-13T06:07:59;99262.78;;;21.53;36.31
6506;BME280;3286;49.858;8.768;2023-07-13T06:10:26;99265.00;;;22.00;35.37
6506;BME280;3286;49.858;8.768;2023-07-13T06:12:52;99283.63;;;21.83;35.92
6506;BME280;3286;49.858;8.768;2023-07-13T06:15:20;99275.09;;;21.86;35.57
6506;BME280;3286;49.858;8.768;2023-07-13T06:17:47;99265.81;;;21.56;36.83
6506;BME280;3286;49.858;8.768;2023-07-13T06:20:14;99261.72;;;21.98;35.72
6506;BME280;3286;49.858;8.768;2023-07-13T06:22:40;99270.16;;;22.02;36.62
6506;BME280;3286;49.858;8.768;2023-07-13T06:25:08;99283.31;;;22.28;35.72
6506;BME280;3286;49.858;8.768;2023-07-13T06:27:35;99280.75;;;21.27;36.66
6506;BME280;3286;49.858;8.768;2023-07-13T06:30:01;99287.91;;;21.40;37.05
6506;BME280;3286;49.858;8.768;2023-07-13T06:32:29;99292.63;;;21.70;35.68
6506;BME280;3286;49.858;8.768;2023-07-13T06:34:56;99287.72;;;21.09;38.02
6506;BME280;3286;49.858;8.768;2023-07-13T06:37:22;99287.81;;;21.97;35.35
6506;BME280;3286;49.858;8.768;2023-07-13T06:39:49;99289.81;;;22.21;34.93
6506;BME280;3286;49.858;8.768;2023-07-13T06:42:16;99299.75;;;22.02;35.67
6506;BME280;3286;49.858;8.768;2023-07-13T06:44:43;99289.84;;;23.00;34.73
6506;BME280;3286;49.858;8.768;2023-07-13T06:47:10;99292.22;;;22.29;36.10
6506;BME280;3286;49.858;8.768;2023-07-13T06:49:38;99305.13;;;22.76;35.23
6506;BME280;3286;49.858;8.768;2023-07-13T06:52:05;99298.94;;;22.57;35.10
6506;BME280;3286;49.858;8.768;2023-07-13T06:54:32;99312.16;;;22.03;36.04
6506;BME280;3286;49.858;8.768;2023-07-13T06:57:00;99309.44;;;22.47;35.46
6506;BME280;3286;49.858;8.768;2023-07-13T06:59:26;99301.84;;;22.55;35.33
6506;BME280;3286;49.858;8.768;2023-07-13T07:01:53;99311.81;;;21.74;36.73
6506;BME280;3286;49.858;8.768;2023-07-13T07:04:20;99315.00;;;22.08;36.76
6506;BME280;3286;49.858;8.768;2023-07-13T07:06:48;99306.88;;;22.82;35.33
6506;BME280;3286;49.858;8.768;2023-07-13T07:09:15;99311.16;;;23.02;35.50
6506;BME280;3286;49.858;8.768;2023-07-13T07:11:42;99318.19;;;21.98;36.63
6506;BME280;3286;49.858;8.768;2023-07-13T07:14:09;99311.34;;;22.58;35.58
6506;BME280;3286;49.858;8.768;2023-07-13T07:16:36;99315.19;;;23.54;34.03
6506;BME280;3286;49.858;8.768;2023-07-13T07:19:03;99316.69;;;23.85;33.82
6506;BME280;3286;49.858;8.768;2023-07-13T07:21:29;99323.38;;;24.19;34.07
6506;BME280;3286;49.858;8.768;2023-07-13T07:23:57;99323.94;;;23.37;34.35
6506;BME280;3286;49.858;8.768;2023-07-13T07:26:25;99320.91;;;23.57;34.17
6506;BME280;3286;49.858;8.768;2023-07-13T07:28:51;99322.19;;;23.79;34.52
6506;BME280;3286;49.858;8.768;2023-07-13T07:31:18;99323.63;;;23.69;34.93
6506;BME280;3286;49.858;8.768;2023-07-13T07:33:45;99325.72;;;23.67;34.60
6506;BME280;3286;49.858;8.768;2023-07-13T07:36:11;99316.50;;;24.52;33.56
6506;BME280;3286;49.858;8.768;2023-07-13T07:38:38;99319.13;;;24.35;33.46
6506;BME280;3286;49.858;8.768;2023-07-13T07:41:06;99314.97;;;24.85;33.08
6506;BME280;3286;49.858;8.768;2023-07-13T07:43:33;99321.19;;;24.56;33.74
6506;BME280;3286;49.858;8.768;2023-07-13T07:46:00;99322.91;;;24.22;33.77
6506;BME280;3286;49.858;8.768;2023-07-13T07:48:26;99327.53;;;24.09;33.07
6506;BME280;3286;49.858;8.768;2023-07-13T07:50:53;99323.88;;;24.04;32.79
6506;BME280;3286;49.858;8.768;2023-07-13T07:53:20;99327.63;;;24.02;34.21
6506;BME280;3286;49.858;8.768;2023-07-13T07:55:46;99314.00;;;24.74;32.85
6506;BME280;3286;49.858;8.768;2023-07-13T07:58:15;99324.34;;;24.12;33.73
6506;BME280;3286;49.858;8.768;2023-07-13T08:00:42;99324.09;;;23.78;34.61
6506;BME280;3286;49.858;8.768;2023-07-13T08:03:09;99318.19;;;24.41;33.57
6506;BME280;3286;49.858;8.768;2023-07-13T08:05:36;99317.91;;;24.95;31.67
6506;BME280;3286;49.858;8.768;2023-07-13T08:08:03;99314.25;;;25.19;31.46
6506;BME280;3286;49.858;8.768;2023-07-13T08:10:30;99319.03;;;24.99;31.99
6506;BME280;3286;49.858;8.768;2023-07-13T08:12:56;99326.38;;;24.87;30.75
6506;BME280;3286;49.858;8.768;2023-07-13T08:15:24;99316.81;;;25.59;30.56
6506;BME280;3286;49.858;8.768;2023-07-13T08:17:51;99321.41;;;25.59;29.77
6506;BME280;3286;49.858;8.768;2023-07-13T08:20:17;99323.56;;;25.11;30.81
6506;BME280;3286;49.858;8.768;2023-07-13T08:22:44;99322.94;;;23.74;32.90
6506;BME280;3286;49.858;8.768;2023-07-13T08:25:11;99320.22;;;25.21;31.03
6506;BME280;3286;49.858;8.768;2023-07-13T08:27:38;99325.59;;;25.03;31.81
6506;BME280;3286;49.858;8.768;2023-07-13T08:30:05;99325.78;;;24.85;32.62
6506;BME280;3286;49.858;8.768;2023-07-13T08:32:36;99312.28;;;25.82;31.22
6506;BME280;3286;49.858;8.768;2023-07-13T08:35:04;99316.66;;;26.23;30.13
6506;BME280;3286;49.858;8.768;2023-07-13T08:37:30;99308.09;;;26.81;29.20
6506;BME280;3286;49.858;8.768;2023-07-13T08:39:57;99319.84;;;26.42;29.68
6506;BME280;3286;49.858;8.768;2023-07-13T08:42:32;99313.59;;;26.19;29.78
6506;BME280;3286;49.858;8.768;2023-07-13T08:45:08;99307.47;;;26.73;28.52
6506;BME280;3286;49.858;8.768;2023-07-13T08:47:44;99320.56;;;27.09;28.32
6506;BME280;3286;49.858;8.768;2023-07-13T08:50:14;99315.50;;;26.41;29.46
6506;BME280;3286;49.858;8.768;2023-07-13T08:52:43;99314.41;;;27.14;27.85
6506;BME280;3286;49.858;8.768;2023-07-13T08:55:13;99314.34;;;26.14;31.57
6506;BME280;3286;49.858;8.768;2023-07-13T08:57:43;99307.47;;;26.07;30.61
6506;BME280;3286;49.858;8.768;2023-07-13T09:00:12;99313.31;;;25.98;31.29
6506;BME280;3286;49.858;8.768;2023-07-13T09:02:45;99305.69;;;27.12;28.97
6506;BME280;3286;49.858;8.768;2023-07-13T09:05:17;99303.56;;;27.14;29.04
6506;BME280;3286;49.858;8.768;2023-07-13T09:08:10;99300.88;;;27.95;27.67
6506;BME280;3286;49.858;8.768;2023-07-13T09:10:44;99297.06;;;27.90;27.61
6506;BME280;3286;49.858;8.768;2023-07-13T09:13:37;99306.66;;;27.28;29.49
6506;BME280;3286;49.858;8.768;2023-07-13T09:16:05;99314.59;;;26.13;30.33
6506;BME280;3286;49.858;8.768;2023-07-13T09:18:38;99309.06;;;25.85;30.04
6506;BME280;3286;49.858;8.768;2023-07-13T09:21:09;99317.03;;;25.24;31.69
6506;BME280;3286;49.858;8.768;2023-07-13T09:23:37;99307.19;;;25.86;30.64
6506;BME280;3286;49.858;8.768;2023-07-13T09:26:08;99304.25;;;26.76;29.49
6506;BME280;3286;49.858;8.768;2023-07-13T09:28:39;99301.56;;;25.70;29.28
6506;BME280;3286;49.858;8.768;2023-07-13T09:31:11;99304.50;;;25.17;30.86
6506;BME280;3286;49.858;8.768;2023-07-13T09:33:41;99307.13;;;26.42;30.96
6506;BME280;3286;49.858;8.768;2023-07-13T09:36:20;99307.50;;;25.89;29.37
6506;BME280;3286;49.858;8.768;2023-07-13T09:38:58;99309.84;;;25.29;29.96
6506;BME280;3286;49.858;8.768;2023-07-13T09:41:35;99306.03;;;24.96;31.14
6506;BME280;3286;49.858;8.768;2023-07-13T09:44:10;99307.69;;;25.14;31.00
6506;BME280;3286;49.858;8.768;2023-07-13T09:46:46;99306.88;;;24.85;30.88
6506;BME280;3286;49.858;8.768;2023-07-13T09:49:14;99304.88;;;25.26;31.13
6506;BME280;3286;49.858;8.768;2023-07-13T09:51:41;99306.94;;;25.87;29.32
6506;BME280;3286;49.858;8.768;2023-07-13T09:54:18;99305.47;;;26.19;28.04
6506;BME280;3286;49.858;8.768;2023-07-13T09:56:45;99302.69;;;26.14;30.28
6506;BME280;3286;49.858;8.768;2023-07-13T09:59:19;99310.06;;;25.79;29.87
6506;BME280;3286;49.858;8.768;2023-07-13T10:01:46;99300.84;;;26.37;29.48
6506;BME280;3286;49.858;8.768;2023-07-13T10:04:17;99301.34;;;27.11;29.14
6506;BME280;3286;49.858;8.768;2023-07-13T10:06:45;99307.41;;;26.01;28.64
6506;BME280;3286;49.858;8.768;2023-07-13T10:09:15;99300.78;;;25.92;29.45
6506;BME280;3286;49.858;8.768;2023-07-13T10:11:43;99317.00;;;25.07;31.37
6506;BME280;3286;49.858;8.768;2023-07-13T10:14:12;99318.56;;;25.88;29.81
6506;BME280;3286;49.858;8.768;2023-07-13T10:16:40;99317.22;;;25.05;30.35
6506;BME280;3286;49.858;8.768;2023-07-13T10:19:13;99312.13;;;25.21;30.44
6506;BME280;3286;49.858;8.768;2023-07-13T10:21:50;99300.06;;;25.45;29.02
6506;BME280;3286;49.858;8.768;2023-07-13T10:24:20;99297.28;;;26.14;27.53
6506;BME280;3286;49.858;8.768;2023-07-13T10:26:52;99306.16;;;26.76;27.27
6506;BME280;3286;49.858;8.768;2023-07-13T10:29:22;99296.28;;;27.52;28.70
6506;BME280;3286;49.858;8.768;2023-07-13T10:31:51;99289.19;;;27.13;26.79
6506;BME280;3286;49.858;8.768;2023-07-13T10:34:17;99290.81;;;27.47;28.64
6506;BME280;3286;49.858;8.768;2023-07-13T10:36:47;99293.38;;;26.99;26.14
6506;BME280;3286;49.858;8.768;2023-07-13T10:39:17;99297.22;;;26.53;28.20
6506;BME280;3286;49.858;8.768;2023-07-13T10:41:48;99302.69;;;26.14;27.45
6506;BME280;3286;49.858;8.768;2023-07-13T10:44:21;99310.16;;;25.84;28.53
6506;BME280;3286;49.858;8.768;2023-07-13T10:46:51;99304.69;;;26.18;29.23
6506;BME280;3286;49.858;8.768;2023-07-13T10:49:19;99302.53;;;26.93;28.27
6506;BME280;3286;49.858;8.768;2023-07-13T10:51:48;99321.16;;;26.39;27.46
6506;BME280;3286;49.858;8.768;2023-07-13T10:54:18;99307.31;;;26.13;28.09
6506;BME280;3286;49.858;8.768;2023-07-13T10:56:50;99304.75;;;25.67;27.84
6506;BME280;3286;49.858;8.768;2023-07-13T10:59:23;99306.94;;;25.36;30.76
6506;BME280;3286;49.858;8.768;2023-07-13T11:01:56;99307.56;;;25.95;28.36
6506;BME280;3286;49.858;8.768;2023-07-13T11:04:24;99298.31;;;25.91;29.43
6506;BME280;3286;49.858;8.768;2023-07-13T11:06:57;99299.06;;;26.25;29.21
6506;BME280;3286;49.858;8.768;2023-07-13T11:09:38;99299.84;;;26.93;26.66
6506;BME280;3286;49.858;8.768;2023-07-13T11:12:26;99299.00;;;27.52;25.75
6506;BME280;3286;49.858;8.768;2023-07-13T11:15:06;99294.59;;;26.86;26.22
6506;BME280;3286;49.858;8.768;2023-07-13T11:17:46;99288.94;;;26.87;26.88
6506;BME280;3286;49.858;8.768;2023-07-13T11:20:42;99299.03;;;26.03;28.84
6506;BME280;3286;49.858;8.768;2023-07-13T11:23:34;99293.75;;;26.13;27.90
6506;BME280;3286;49.858;8.768;2023-07-13T11:29:25;99288.72;;;25.83;29.70
6506;BME280;3286;49.858;8.768;2023-07-13T11:31:53;99287.88;;;26.39;28.33
6506;BME280;3286;49.858;8.768;2023-07-13T11:34:25;99297.13;;;25.81;29.10
6506;BME280;3286;49.858;8.768;2023-07-13T11:36:53;99281.31;;;26.57;26.60
6506;BME280;3286;49.858;8.768;2023-07-13T11:39:27;99291.22;;;26.24;28.90
6506;BME280;3286;49.858;8.768;2023-07-13T11:41:57;99293.72;;;25.52;28.69
6506;BME280;3286;49.858;8.768;2023-07-13T11:44:27;99283.28;;;26.00;28.02
6506;BME280;3286;49.858;8.768;2023-07-13T11:46:56;99280.75;;;27.10;26.60
6506;BME280;3286;49.858;8.768;2023-07-13T11:49:28;99280.41;;;26.51;27.06
6506;BME280;3286;49.858;8.768;2023-07-13T11:51:56;99279.31;;;26.74;27.35
6506;BME280;3286;49.858;8.768;2023-07-13T11:54:27;99286.69;;;26.79;27.05
6506;BME280;3286;49.858;8.768;2023-07-13T11:56:55;99286.22;;;25.25;29.44
6506;BME280;3286;49.858;8.768;2023-07-13T11:59:26;99281.53;;;26.11;28.78
6506;BME280;3286;49.858;8.768;2023-07-13T12:01:56;99281.94;;;26.20;26.48
6506;BME280;3286;49.858;8.768;2023-07-13T12:04:27;99271.31;;;25.56;27.60
6506;BME280;3286;49.858;8.768;2023-07-13T12:06:58;99272.28;;;26.51;27.96
6506;BME280;3286;49.858;8.768;2023-07-13T12:09:35;99278.13;;;26.65;25.84
6506;BME280;3286;49.858;8.768;2023-07-13T12:12:03;99278.63;;;26.35;26.97
6506;BME280;3286;49.858;8.768;2023-07-13T12:14:33;99276.69;;;26.57;27.49
6506;BME280;3286;49.858;8.768;2023-07-13T12:17:00;99268.97;;;27.31;25.68
6506;BME280;3286;49.858;8.768;2023-07-13T12:19:28;99276.03;;;27.65;25.15
6506;BME280;3286;49.858;8.768;2023-07-13T12:21:56;99273.94;;;26.52;26.53
6506;BME280;3286;49.858;8.768;2023-07-13T12:24:25;99272.00;;;27.02;26.26
6506;BME280;3286;49.858;8.768;2023-07-13T12:26:58;99281.78;;;26.76;26.82
6506;BME280;3286;49.858;8.768;2023-07-13T12:29:26;99282.66;;;26.59;26.11
6506;BME280;3286;49.858;8.768;2023-07-13T12:31:53;99286.25;;;26.15;26.58
6506;BME280;3286;49.858;8.768;2023-07-13T12:34:23;99284.59;;;26.86;26.15
6506;BME280;3286;49.858;8.768;2023-07-13T12:36:51;99287.88;;;28.02;24.46
6506;BME280;3286;49.858;8.768;2023-07-13T12:39:22;99279.75;;;27.54;26.19
6506;BME280;3286;49.858;8.768;2023-07-13T12:41:50;99291.22;;;26.07;25.80
6506;BME280;3286;49.858;8.768;2023-07-13T12:44:24;99280.66;;;26.27;26.31
6506;BME280;3286;49.858;8.768;2023-07-13T12:46:54;99286.03;;;26.72;26.21
6506;BME280;3286;49.858;8.768;2023-07-13T12:49:25;99278.59;;;27.50;25.23
6506;BME280;3286;49.858;8.768;2023-07-13T12:51:56;99285.09;;;27.81;24.10
6506;BME280;3286;49.858;8.768;2023-07-13T12:54:24;99284.69;;;29.00;23.88
6506;BME280;3286;49.858;8.768;2023-07-13T12:56:53;99285.34;;;27.09;24.69
6506;BME280;3286;49.858;8.768;2023-07-13T12:59:23;99284.25;;;28.34;23.36
6506;BME280;3286;49.858;8.768;2023-07-13T13:01:51;99292.56;;;28.86;23.28
6506;BME280;3286;49.858;8.768;2023-07-13T13:04:19;99288.59;;;28.35;24.28
6506;BME280;3286;49.858;8.768;2023-07-13T13:06:47;99301.56;;;25.70;26.69
6506;BME280;3286;49.858;8.768;2023-07-13T13:09:17;99294.19;;;26.50;28.01
6506;BME280;3286;49.858;8.768;2023-07-13T13:11:45;99298.81;;;26.99;26.21
6506;BME280;3286;49.858;8.768;2023-07-13T13:14:12;99310.34;;;26.00;27.07
6506;BME280;3286;49.858;8.768;2023-07-13T13:16:46;99307.38;;;25.79;28.54
6506;BME280;3286;49.858;8.768;2023-07-13T13:19:16;99307.56;;;25.95;27.04
6506;BME280;3286;49.858;8.768;2023-07-13T13:21:44;99307.66;;;26.67;27.80
6506;BME280;3286;49.858;8.768;2023-07-13T13:24:12;99319.53;;;26.16;28.75
6506;BME280;3286;49.858;8.768;2023-07-13T13:26:40;99318.88;;;26.09;26.82
6506;BME280;3286;49.858;8.768;2023-07-13T13:29:12;99315.56;;;26.46;27.82
6506;BME280;3286;49.858;8.768;2023-07-13T13:31:42;99305.31;;;26.75;27.45
6506;BME280;3286;49.858;8.768;2023-07-13T13:34:10;99320.47;;;25.87;29.42
6506;BME280;3286;49.858;8.768;2023-07-13T13:36:37;99314.25;;;25.70;30.16